Etusivu
METAR-TAF:

METAR-TAF

Lentoasemat :

Vidsel, Ruotsi

Leveyspiiri: 65-52N, Pituuspiiri: 020-08E, korkeus merenpinnasta: 180 m

Tämänhetkinen sää

Tämä raportti tehtiin 21 minuuttia sitten, kello 11.20 UTC
Tuuli 5 kn lännestä, vaihdellen lännen/lounaan ja lännen/luoteen välillä
Lämpötila 19°C
Kosteus 73%
Ilmanpaine 1010 hPa
Näkyvyys 10 km tai enemmän

METAR: ESPE 231120Z AUTO 27005KT 240V300 9999 FEW058/// BKN120/// 19/14 Q1010

Aika: 13:41 (11:41 UTC)


TAF: puuttuu

Säähavainnot ja -ennusteet yli 4000 lentoasemalta (METAR- ja TAF-raportit).

Käytössä olevat sääasemat on merkitty karttaan keltaisilla ja punaisilla pisteillä.

Aseta hiiri pisteen päälle nähdäksesi sääaseman nimen.

Klikkaa sitten nähdäksesi säähavainnot ja -ennusteet.

Kartan vaihtaminen: klikkaa mustalla rastilla varustettuja vihreitä pisteitä, niin voit zoomata sisään; viivalla varustettua vihreää pistettä, niin voit zoomata ulos tai vihreitä nuolia, niin pääset viereisille kartoille.


METAR-TAF: